sensor_id;sensor_type;location;lat;lon;timestamp;P1;durP1;ratioP1;P2;durP2;ratioP2
35632;SDS011;21754;48.216;-1.628;2023-07-31T00:00:15;14.30;;;4.00;;
35632;SDS011;21754;48.216;-1.628;2023-07-31T00:02:41;12.10;;;4.22;;
35632;SDS011;21754;48.216;-1.628;2023-07-31T00:05:08;13.05;;;3.72;;
35632;SDS011;21754;48.216;-1.628;2023-07-31T00:07:35;13.50;;;5.35;;
35632;SDS011;21754;48.216;-1.628;2023-07-31T00:10:01;10.80;;;4.00;;
35632;SDS011;21754;48.216;-1.628;2023-07-31T00:12:27;14.68;;;5.47;;
35632;SDS011;21754;48.216;-1.628;2023-07-31T00:14:53;13.32;;;3.85;;
35632;SDS011;21754;48.216;-1.628;2023-07-31T00:17:19;14.73;;;4.30;;
35632;SDS011;21754;48.216;-1.628;2023-07-31T00:19:45;8.75;;;4.22;;
35632;SDS011;21754;48.216;-1.628;2023-07-31T00:22:14;12.30;;;4.35;;
35632;SDS011;21754;48.216;-1.628;2023-07-31T00:24:40;16.98;;;4.93;;
35632;SDS011;21754;48.216;-1.628;2023-07-31T00:27:06;13.43;;;4.47;;
35632;SDS011;21754;48.216;-1.628;2023-07-31T00:29:32;21.67;;;4.30;;
35632;SDS011;21754;48.216;-1.628;2023-07-31T00:31:58;7.75;;;3.88;;
35632;SDS011;21754;48.216;-1.628;2023-07-31T00:34:24;17.88;;;4.40;;
35632;SDS011;21754;48.216;-1.628;2023-07-31T00:36:50;11.85;;;4.05;;
35632;SDS011;21754;48.216;-1.628;2023-07-31T00:39:16;10.95;;;4.45;;
35632;SDS011;21754;48.216;-1.628;2023-07-31T00:41:42;13.15;;;4.10;;
35632;SDS011;21754;48.216;-1.628;2023-07-31T00:44:08;14.02;;;4.30;;
35632;SDS011;21754;48.216;-1.628;2023-07-31T00:46:34;13.88;;;5.35;;
35632;SDS011;21754;48.216;-1.628;2023-07-31T00:49:00;11.50;;;4.07;;
35632;SDS011;21754;48.216;-1.628;2023-07-31T00:51:26;13.88;;;5.25;;
35632;SDS011;21754;48.216;-1.628;2023-07-31T00:53:52;9.70;;;4.45;;
35632;SDS011;21754;48.216;-1.628;2023-07-31T00:56:19;11.85;;;3.63;;
35632;SDS011;21754;48.216;-1.628;2023-07-31T00:58:45;10.95;;;4.15;;
35632;SDS011;21754;48.216;-1.628;2023-07-31T01:01:11;12.35;;;4.90;;
35632;SDS011;21754;48.216;-1.628;2023-07-31T01:03:37;15.80;;;5.40;;
35632;SDS011;21754;48.216;-1.628;2023-07-31T01:08:37;10.45;;;4.03;;
35632;SDS011;21754;48.216;-1.628;2023-07-31T01:11:15;10.40;;;3.65;;
35632;SDS011;21754;48.216;-1.628;2023-07-31T01:13:44;12.13;;;4.95;;
35632;SDS011;21754;48.216;-1.628;2023-07-31T01:16:10;15.75;;;4.60;;
35632;SDS011;21754;48.216;-1.628;2023-07-31T01:18:36;10.73;;;4.45;;
35632;SDS011;21754;48.216;-1.628;2023-07-31T01:21:17;14.60;;;4.63;;
35632;SDS011;21754;48.216;-1.628;2023-07-31T01:26:19;8.65;;;4.30;;
35632;SDS011;21754;48.216;-1.628;2023-07-31T01:31:15;14.32;;;4.53;;
35632;SDS011;21754;48.216;-1.628;2023-07-31T01:33:42;17.52;;;5.13;;
35632;SDS011;21754;48.216;-1.628;2023-07-31T01:36:08;16.15;;;6.38;;
35632;SDS011;21754;48.216;-1.628;2023-07-31T01:38:34;12.30;;;5.00;;
35632;SDS011;21754;48.216;-1.628;2023-07-31T01:41:00;11.30;;;4.63;;
35632;SDS011;21754;48.216;-1.628;2023-07-31T01:43:26;12.10;;;5.22;;
35632;SDS011;21754;48.216;-1.628;2023-07-31T01:45:52;14.45;;;4.40;;
35632;SDS011;21754;48.216;-1.628;2023-07-31T01:48:18;9.80;;;5.10;;
35632;SDS011;21754;48.216;-1.628;2023-07-31T01:50:44;9.05;;;4.10;;
35632;SDS011;21754;48.216;-1.628;2023-07-31T01:53:10;14.23;;;3.83;;
35632;SDS011;21754;48.216;-1.628;2023-07-31T01:55:37;11.93;;;4.30;;
35632;SDS011;21754;48.216;-1.628;2023-07-31T01:58:03;15.40;;;5.20;;
35632;SDS011;21754;48.216;-1.628;2023-07-31T02:00:30;17.05;;;5.50;;
35632;SDS011;21754;48.216;-1.628;2023-07-31T02:02:56;15.93;;;4.38;;
35632;SDS011;21754;48.216;-1.628;2023-07-31T02:05:22;9.52;;;3.72;;
35632;SDS011;21754;48.216;-1.628;2023-07-31T02:07:48;16.13;;;4.28;;
35632;SDS011;21754;48.216;-1.628;2023-07-31T02:10:14;14.15;;;4.95;;
35632;SDS011;21754;48.216;-1.628;2023-07-31T02:12:40;10.05;;;4.47;;
35632;SDS011;21754;48.216;-1.628;2023-07-31T02:15:06;7.63;;;3.33;;
35632;SDS011;21754;48.216;-1.628;2023-07-31T02:17:32;12.23;;;4.22;;
35632;SDS011;21754;48.216;-1.628;2023-07-31T02:19:58;10.48;;;3.92;;
35632;SDS011;21754;48.216;-1.628;2023-07-31T02:22:24;15.63;;;5.72;;
35632;SDS011;21754;48.216;-1.628;2023-07-31T02:24:50;9.68;;;3.75;;
35632;SDS011;21754;48.216;-1.628;2023-07-31T02:27:16;10.00;;;4.70;;
35632;SDS011;21754;48.216;-1.628;2023-07-31T02:29:42;5.65;;;3.50;;
35632;SDS011;21754;48.216;-1.628;2023-07-31T02:32:08;9.80;;;3.65;;
35632;SDS011;21754;48.216;-1.628;2023-07-31T02:34:34;9.77;;;3.85;;
35632;SDS011;21754;48.216;-1.628;2023-07-31T02:37:00;12.68;;;4.05;;
35632;SDS011;21754;48.216;-1.628;2023-07-31T02:39:26;12.02;;;4.25;;
35632;SDS011;21754;48.216;-1.628;2023-07-31T02:41:52;10.02;;;3.95;;
35632;SDS011;21754;48.216;-1.628;2023-07-31T02:44:18;8.73;;;3.50;;
35632;SDS011;21754;48.216;-1.628;2023-07-31T02:46:46;11.57;;;4.75;;
35632;SDS011;21754;48.216;-1.628;2023-07-31T02:49:12;7.13;;;3.63;;
35632;SDS011;21754;48.216;-1.628;2023-07-31T02:51:38;14.38;;;3.75;;
35632;SDS011;21754;48.216;-1.628;2023-07-31T02:54:04;9.35;;;3.97;;
35632;SDS011;21754;48.216;-1.628;2023-07-31T02:56:30;14.05;;;4.80;;
35632;SDS011;21754;48.216;-1.628;2023-07-31T02:58:55;13.50;;;4.40;;
35632;SDS011;21754;48.216;-1.628;2023-07-31T03:01:21;7.25;;;3.22;;
35632;SDS011;21754;48.216;-1.628;2023-07-31T03:03:47;10.20;;;3.40;;
35632;SDS011;21754;48.216;-1.628;2023-07-31T03:06:14;5.50;;;3.33;;
35632;SDS011;21754;48.216;-1.628;2023-07-31T03:08:40;12.35;;;4.32;;
35632;SDS011;21754;48.216;-1.628;2023-07-31T03:11:05;12.07;;;3.53;;
35632;SDS011;21754;48.216;-1.628;2023-07-31T03:13:31;11.95;;;3.70;;
35632;SDS011;21754;48.216;-1.628;2023-07-31T03:15:57;12.52;;;3.45;;
35632;SDS011;21754;48.216;-1.628;2023-07-31T03:18:23;10.50;;;3.80;;
35632;SDS011;21754;48.216;-1.628;2023-07-31T03:20:50;10.40;;;4.03;;
35632;SDS011;21754;48.216;-1.628;2023-07-31T03:23:16;9.50;;;4.15;;
35632;SDS011;21754;48.216;-1.628;2023-07-31T03:25:54;11.85;;;3.67;;
35632;SDS011;21754;48.216;-1.628;2023-07-31T03:28:21;7.85;;;3.72;;
35632;SDS011;21754;48.216;-1.628;2023-07-31T03:30:47;9.88;;;3.67;;
35632;SDS011;21754;48.216;-1.628;2023-07-31T03:33:13;7.13;;;4.40;;
35632;SDS011;21754;48.216;-1.628;2023-07-31T03:35:39;7.28;;;3.65;;
35632;SDS011;21754;48.216;-1.628;2023-07-31T03:38:05;12.25;;;3.92;;
35632;SDS011;21754;48.216;-1.628;2023-07-31T03:40:31;7.60;;;3.13;;
35632;SDS011;21754;48.216;-1.628;2023-07-31T03:42:57;5.28;;;3.83;;
35632;SDS011;21754;48.216;-1.628;2023-07-31T03:45:23;6.88;;;3.78;;
35632;SDS011;21754;48.216;-1.628;2023-07-31T03:47:49;22.70;;;3.65;;
35632;SDS011;21754;48.216;-1.628;2023-07-31T03:50:15;10.95;;;3.70;;
35632;SDS011;21754;48.216;-1.628;2023-07-31T03:52:41;10.40;;;4.65;;
35632;SDS011;21754;48.216;-1.628;2023-07-31T03:55:07;9.15;;;3.90;;
35632;SDS011;21754;48.216;-1.628;2023-07-31T03:57:33;12.02;;;4.00;;
35632;SDS011;21754;48.216;-1.628;2023-07-31T03:59:59;6.95;;;4.65;;
35632;SDS011;21754;48.216;-1.628;2023-07-31T04:02:25;12.57;;;4.00;;
35632;SDS011;21754;48.216;-1.628;2023-07-31T04:04:51;11.48;;;3.15;;
35632;SDS011;21754;48.216;-1.628;2023-07-31T04:07:17;6.18;;;3.30;;
35632;SDS011;21754;48.216;-1.628;2023-07-31T04:09:43;15.07;;;4.18;;
35632;SDS011;21754;48.216;-1.628;2023-07-31T04:12:09;21.27;;;4.63;;
35632;SDS011;21754;48.216;-1.628;2023-07-31T04:14:35;17.48;;;3.60;;
35632;SDS011;21754;48.216;-1.628;2023-07-31T04:17:01;10.77;;;3.80;;
35632;SDS011;21754;48.216;-1.628;2023-07-31T04:19:27;15.00;;;3.22;;
35632;SDS011;21754;48.216;-1.628;2023-07-31T04:21:53;12.32;;;3.65;;
35632;SDS011;21754;48.216;-1.628;2023-07-31T04:24:19;6.18;;;3.60;;
35632;SDS011;21754;48.216;-1.628;2023-07-31T04:26:52;15.40;;;5.72;;
35632;SDS011;21754;48.216;-1.628;2023-07-31T04:29:19;13.68;;;3.92;;
35632;SDS011;21754;48.216;-1.628;2023-07-31T04:31:45;18.95;;;4.57;;
35632;SDS011;21754;48.216;-1.628;2023-07-31T04:34:11;8.35;;;3.10;;
35632;SDS011;21754;48.216;-1.628;2023-07-31T04:36:37;9.82;;;3.40;;
35632;SDS011;21754;48.216;-1.628;2023-07-31T04:39:03;13.52;;;4.78;;
35632;SDS011;21754;48.216;-1.628;2023-07-31T04:41:29;7.55;;;3.05;;
35632;SDS011;21754;48.216;-1.628;2023-07-31T04:43:55;6.03;;;3.15;;
35632;SDS011;21754;48.216;-1.628;2023-07-31T04:46:21;14.05;;;3.85;;
35632;SDS011;21754;48.216;-1.628;2023-07-31T04:48:47;14.18;;;4.05;;
35632;SDS011;21754;48.216;-1.628;2023-07-31T04:51:13;12.38;;;3.25;;
35632;SDS011;21754;48.216;-1.628;2023-07-31T04:53:39;10.07;;;3.70;;
35632;SDS011;21754;48.216;-1.628;2023-07-31T04:56:05;16.40;;;3.80;;
35632;SDS011;21754;48.216;-1.628;2023-07-31T04:58:31;8.20;;;3.90;;
35632;SDS011;21754;48.216;-1.628;2023-07-31T05:00:57;10.70;;;3.78;;
35632;SDS011;21754;48.216;-1.628;2023-07-31T05:03:23;14.05;;;3.95;;
35632;SDS011;21754;48.216;-1.628;2023-07-31T05:05:49;10.48;;;3.92;;
35632;SDS011;21754;48.216;-1.628;2023-07-31T05:08:16;10.25;;;3.72;;
35632;SDS011;21754;48.216;-1.628;2023-07-31T05:10:45;8.10;;;3.95;;
35632;SDS011;21754;48.216;-1.628;2023-07-31T05:13:11;12.63;;;3.75;;
35632;SDS011;21754;48.216;-1.628;2023-07-31T05:15:37;7.82;;;3.42;;
35632;SDS011;21754;48.216;-1.628;2023-07-31T05:18:03;6.72;;;3.22;;
35632;SDS011;21754;48.216;-1.628;2023-07-31T05:20:29;14.05;;;3.25;;
35632;SDS011;21754;48.216;-1.628;2023-07-31T05:22:55;8.52;;;3.67;;
35632;SDS011;21754;48.216;-1.628;2023-07-31T05:25:21;12.63;;;4.05;;
35632;SDS011;21754;48.216;-1.628;2023-07-31T05:27:46;11.40;;;3.65;;
35632;SDS011;21754;48.216;-1.628;2023-07-31T05:30:12;11.43;;;3.47;;
35632;SDS011;21754;48.216;-1.628;2023-07-31T05:32:38;9.57;;;4.13;;
35632;SDS011;21754;48.216;-1.628;2023-07-31T05:35:05;8.15;;;3.60;;
35632;SDS011;21754;48.216;-1.628;2023-07-31T05:37:31;9.85;;;3.25;;
35632;SDS011;21754;48.216;-1.628;2023-07-31T05:39:57;9.23;;;3.92;;
35632;SDS011;21754;48.216;-1.628;2023-07-31T05:42:23;20.67;;;4.22;;
35632;SDS011;21754;48.216;-1.628;2023-07-31T05:44:48;5.93;;;3.30;;
35632;SDS011;21754;48.216;-1.628;2023-07-31T05:47:14;12.98;;;3.38;;
35632;SDS011;21754;48.216;-1.628;2023-07-31T05:49:40;11.85;;;4.72;;
35632;SDS011;21754;48.216;-1.628;2023-07-31T05:52:07;9.75;;;3.72;;
35632;SDS011;21754;48.216;-1.628;2023-07-31T05:54:33;5.45;;;3.28;;
35632;SDS011;21754;48.216;-1.628;2023-07-31T05:56:59;17.65;;;3.97;;
35632;SDS011;21754;48.216;-1.628;2023-07-31T05:59:25;7.70;;;2.80;;
35632;SDS011;21754;48.216;-1.628;2023-07-31T06:01:51;8.38;;;3.15;;
35632;SDS011;21754;48.216;-1.628;2023-07-31T06:04:17;14.57;;;4.15;;
35632;SDS011;21754;48.216;-1.628;2023-07-31T06:06:43;7.00;;;3.45;;
35632;SDS011;21754;48.216;-1.628;2023-07-31T06:09:09;6.57;;;3.42;;
35632;SDS011;21754;48.216;-1.628;2023-07-31T06:11:35;3.85;;;2.88;;
35632;SDS011;21754;48.216;-1.628;2023-07-31T06:14:01;6.03;;;4.03;;
35632;SDS011;21754;48.216;-1.628;2023-07-31T06:16:26;14.77;;;3.78;;
35632;SDS011;21754;48.216;-1.628;2023-07-31T06:18:53;9.88;;;4.38;;
35632;SDS011;21754;48.216;-1.628;2023-07-31T06:21:19;8.35;;;2.83;;
35632;SDS011;21754;48.216;-1.628;2023-07-31T06:23:45;6.47;;;3.35;;
35632;SDS011;21754;48.216;-1.628;2023-07-31T06:26:11;10.65;;;3.35;;
35632;SDS011;21754;48.216;-1.628;2023-07-31T06:28:37;11.27;;;4.45;;
35632;SDS011;21754;48.216;-1.628;2023-07-31T06:31:03;10.75;;;2.50;;
35632;SDS011;21754;48.216;-1.628;2023-07-31T06:33:29;10.70;;;3.75;;
35632;SDS011;21754;48.216;-1.628;2023-07-31T06:35:55;15.30;;;3.42;;
35632;SDS011;21754;48.216;-1.628;2023-07-31T06:38:24;8.40;;;3.33;;
35632;SDS011;21754;48.216;-1.628;2023-07-31T06:40:50;6.07;;;2.65;;
35632;SDS011;21754;48.216;-1.628;2023-07-31T06:43:16;9.18;;;2.75;;
35632;SDS011;21754;48.216;-1.628;2023-07-31T06:45:42;14.57;;;3.28;;
35632;SDS011;21754;48.216;-1.628;2023-07-31T06:48:09;8.32;;;2.35;;
35632;SDS011;21754;48.216;-1.628;2023-07-31T06:50:35;12.07;;;4.65;;
35632;SDS011;21754;48.216;-1.628;2023-07-31T06:53:02;7.23;;;2.50;;
35632;SDS011;21754;48.216;-1.628;2023-07-31T06:55:28;8.57;;;2.58;;
35632;SDS011;21754;48.216;-1.628;2023-07-31T06:57:54;6.50;;;2.35;;
35632;SDS011;21754;48.216;-1.628;2023-07-31T07:00:21;12.75;;;3.08;;
35632;SDS011;21754;48.216;-1.628;2023-07-31T07:02:47;7.80;;;2.42;;
35632;SDS011;21754;48.216;-1.628;2023-07-31T07:05:13;6.78;;;2.15;;
35632;SDS011;21754;48.216;-1.628;2023-07-31T07:07:40;4.55;;;2.60;;
35632;SDS011;21754;48.216;-1.628;2023-07-31T07:10:06;6.97;;;2.55;;
35632;SDS011;21754;48.216;-1.628;2023-07-31T07:12:32;11.00;;;2.42;;
35632;SDS011;21754;48.216;-1.628;2023-07-31T07:14:59;4.60;;;2.33;;
35632;SDS011;21754;48.216;-1.628;2023-07-31T07:17:25;4.07;;;2.50;;
35632;SDS011;21754;48.216;-1.628;2023-07-31T07:19:51;9.48;;;2.67;;
35632;SDS011;21754;48.216;-1.628;2023-07-31T07:22:17;9.63;;;3.45;;
35632;SDS011;21754;48.216;-1.628;2023-07-31T07:24:43;9.80;;;2.08;;
35632;SDS011;21754;48.216;-1.628;2023-07-31T07:27:10;3.25;;;1.65;;
35632;SDS011;21754;48.216;-1.628;2023-07-31T07:29:38;10.93;;;2.38;;
35632;SDS011;21754;48.216;-1.628;2023-07-31T07:32:04;7.50;;;2.55;;
35632;SDS011;21754;48.216;-1.628;2023-07-31T07:34:30;9.48;;;2.83;;
35632;SDS011;21754;48.216;-1.628;2023-07-31T07:36:56;11.25;;;2.72;;
35632;SDS011;21754;48.216;-1.628;2023-07-31T07:39:22;9.50;;;2.63;;
35632;SDS011;21754;48.216;-1.628;2023-07-31T07:41:48;8.43;;;2.30;;
35632;SDS011;21754;48.216;-1.628;2023-07-31T07:44:14;13.77;;;2.58;;
35632;SDS011;21754;48.216;-1.628;2023-07-31T07:46:40;11.65;;;2.15;;
35632;SDS011;21754;48.216;-1.628;2023-07-31T07:49:06;9.38;;;2.83;;
35632;SDS011;21754;48.216;-1.628;2023-07-31T07:51:32;8.35;;;2.20;;
35632;SDS011;21754;48.216;-1.628;2023-07-31T07:53:58;4.72;;;2.40;;
35632;SDS011;21754;48.216;-1.628;2023-07-31T07:56:25;5.65;;;2.35;;
35632;SDS011;21754;48.216;-1.628;2023-07-31T07:58:51;3.03;;;2.40;;
35632;SDS011;21754;48.216;-1.628;2023-07-31T08:01:17;5.53;;;1.95;;
35632;SDS011;21754;48.216;-1.628;2023-07-31T08:03:43;7.32;;;2.15;;
35632;SDS011;21754;48.216;-1.628;2023-07-31T08:06:09;7.57;;;2.25;;
35632;SDS011;21754;48.216;-1.628;2023-07-31T08:08:36;5.60;;;2.30;;
35632;SDS011;21754;48.216;-1.628;2023-07-31T08:11:02;9.77;;;3.58;;
35632;SDS011;21754;48.216;-1.628;2023-07-31T08:13:28;6.72;;;2.97;;
35632;SDS011;21754;48.216;-1.628;2023-07-31T08:15:54;5.82;;;2.38;;
35632;SDS011;21754;48.216;-1.628;2023-07-31T08:18:20;5.10;;;2.22;;
35632;SDS011;21754;48.216;-1.628;2023-07-31T08:20:46;5.43;;;2.75;;
35632;SDS011;21754;48.216;-1.628;2023-07-31T08:23:12;5.57;;;1.80;;
35632;SDS011;21754;48.216;-1.628;2023-07-31T08:25:39;2.33;;;1.58;;
35632;SDS011;21754;48.216;-1.628;2023-07-31T08:28:05;8.30;;;2.17;;
35632;SDS011;21754;48.216;-1.628;2023-07-31T08:30:31;5.30;;;2.05;;
35632;SDS011;21754;48.216;-1.628;2023-07-31T08:33:01;6.95;;;2.42;;
35632;SDS011;21754;48.216;-1.628;2023-07-31T08:35:27;6.53;;;2.08;;
35632;SDS011;21754;48.216;-1.628;2023-07-31T08:37:54;5.72;;;1.83;;
35632;SDS011;21754;48.216;-1.628;2023-07-31T08:40:20;5.55;;;1.83;;
35632;SDS011;21754;48.216;-1.628;2023-07-31T08:42:51;3.20;;;1.38;;
35632;SDS011;21754;48.216;-1.628;2023-07-31T08:45:18;3.22;;;1.35;;
35632;SDS011;21754;48.216;-1.628;2023-07-31T08:47:45;4.03;;;1.70;;
35632;SDS011;21754;48.216;-1.628;2023-07-31T08:50:14;3.80;;;1.67;;
35632;SDS011;21754;48.216;-1.628;2023-07-31T08:52:41;6.20;;;1.50;;
35632;SDS011;21754;48.216;-1.628;2023-07-31T08:55:07;2.97;;;1.10;;
35632;SDS011;21754;48.216;-1.628;2023-07-31T08:57:34;5.90;;;1.83;;
35632;SDS011;21754;48.216;-1.628;2023-07-31T09:00:00;3.83;;;2.17;;
35632;SDS011;21754;48.216;-1.628;2023-07-31T09:02:28;3.65;;;1.60;;
35632;SDS011;21754;48.216;-1.628;2023-07-31T09:04:56;4.15;;;1.60;;
35632;SDS011;21754;48.216;-1.628;2023-07-31T09:07:22;2.42;;;1.30;;
35632;SDS011;21754;48.216;-1.628;2023-07-31T09:09:49;2.88;;;1.33;;
35632;SDS011;21754;48.216;-1.628;2023-07-31T09:12:15;8.52;;;1.48;;
35632;SDS011;21754;48.216;-1.628;2023-07-31T09:14:42;4.65;;;1.80;;
35632;SDS011;21754;48.216;-1.628;2023-07-31T09:17:07;2.50;;;1.40;;
35632;SDS011;21754;48.216;-1.628;2023-07-31T09:19:34;2.35;;;1.17;;
35632;SDS011;21754;48.216;-1.628;2023-07-31T09:22:02;3.83;;;1.98;;
35632;SDS011;21754;48.216;-1.628;2023-07-31T09:24:29;4.82;;;2.17;;
35632;SDS011;21754;48.216;-1.628;2023-07-31T09:26:55;5.82;;;1.75;;
35632;SDS011;21754;48.216;-1.628;2023-07-31T09:29:22;4.28;;;1.75;;
35632;SDS011;21754;48.216;-1.628;2023-07-31T09:31:48;3.75;;;2.10;;
35632;SDS011;21754;48.216;-1.628;2023-07-31T09:34:14;5.65;;;1.67;;
35632;SDS011;21754;48.216;-1.628;2023-07-31T09:36:45;3.95;;;2.13;;
35632;SDS011;21754;48.216;-1.628;2023-07-31T09:39:11;7.20;;;2.30;;
35632;SDS011;21754;48.216;-1.628;2023-07-31T09:41:38;6.20;;;2.70;;
35632;SDS011;21754;48.216;-1.628;2023-07-31T09:44:04;3.47;;;1.40;;
35632;SDS011;21754;48.216;-1.628;2023-07-31T09:46:30;2.53;;;2.22;;
35632;SDS011;21754;48.216;-1.628;2023-07-31T09:49:09;2.55;;;1.67;;
35632;SDS011;21754;48.216;-1.628;2023-07-31T09:51:38;3.67;;;2.03;;
35632;SDS011;21754;48.216;-1.628;2023-07-31T09:54:17;2.85;;;1.50;;
35632;SDS011;21754;48.216;-1.628;2023-07-31T09:56:44;4.90;;;3.03;;
35632;SDS011;21754;48.216;-1.628;2023-07-31T09:59:14;4.30;;;1.70;;
35632;SDS011;21754;48.216;-1.628;2023-07-31T10:01:41;7.07;;;2.08;;
35632;SDS011;21754;48.216;-1.628;2023-07-31T10:04:07;4.00;;;2.47;;
35632;SDS011;21754;48.216;-1.628;2023-07-31T10:06:34;3.40;;;2.15;;
35632;SDS011;21754;48.216;-1.628;2023-07-31T10:09:01;6.50;;;2.47;;
35632;SDS011;21754;48.216;-1.628;2023-07-31T10:11:28;9.50;;;2.78;;
35632;SDS011;21754;48.216;-1.628;2023-07-31T10:13:56;6.82;;;3.30;;
35632;SDS011;21754;48.216;-1.628;2023-07-31T10:16:22;5.30;;;2.50;;
35632;SDS011;21754;48.216;-1.628;2023-07-31T10:18:49;5.03;;;3.10;;
35632;SDS011;21754;48.216;-1.628;2023-07-31T10:21:15;9.07;;;2.97;;
35632;SDS011;21754;48.216;-1.628;2023-07-31T10:23:41;8.43;;;2.25;;
35632;SDS011;21754;48.216;-1.628;2023-07-31T10:26:08;6.38;;;2.42;;
35632;SDS011;21754;48.216;-1.628;2023-07-31T10:28:35;6.38;;;2.85;;
35632;SDS011;21754;48.216;-1.628;2023-07-31T10:31:02;6.60;;;2.63;;
35632;SDS011;21754;48.216;-1.628;2023-07-31T10:33:28;7.22;;;2.83;;
35632;SDS011;21754;48.216;-1.628;2023-07-31T10:36:14;7.25;;;2.60;;
35632;SDS011;21754;48.216;-1.628;2023-07-31T10:38:41;6.63;;;3.33;;
35632;SDS011;21754;48.216;-1.628;2023-07-31T10:41:08;5.47;;;2.80;;
35632;SDS011;21754;48.216;-1.628;2023-07-31T10:43:35;3.90;;;2.25;;
35632;SDS011;21754;48.216;-1.628;2023-07-31T10:46:05;5.72;;;2.83;;
35632;SDS011;21754;48.216;-1.628;2023-07-31T10:48:35;8.23;;;2.67;;
35632;SDS011;21754;48.216;-1.628;2023-07-31T10:51:02;7.93;;;3.40;;
35632;SDS011;21754;48.216;-1.628;2023-07-31T10:53:32;8.75;;;3.13;;
35632;SDS011;21754;48.216;-1.628;2023-07-31T10:56:02;3.95;;;2.72;;
35632;SDS011;21754;48.216;-1.628;2023-07-31T10:58:29;3.97;;;2.10;;
35632;SDS011;21754;48.216;-1.628;2023-07-31T11:00:57;7.68;;;2.78;;
35632;SDS011;21754;48.216;-1.628;2023-07-31T11:03:27;8.80;;;3.63;;
35632;SDS011;21754;48.216;-1.628;2023-07-31T11:06:06;6.13;;;2.40;;
35632;SDS011;21754;48.216;-1.628;2023-07-31T11:08:33;7.80;;;3.33;;
35632;SDS011;21754;48.216;-1.628;2023-07-31T11:16:18;6.18;;;2.90;;
35632;SDS011;21754;48.216;-1.628;2023-07-31T11:18:45;6.05;;;2.53;;
35632;SDS011;21754;48.216;-1.628;2023-07-31T11:21:15;3.67;;;2.58;;
35632;SDS011;21754;48.216;-1.628;2023-07-31T11:23:45;5.03;;;2.40;;
35632;SDS011;21754;48.216;-1.628;2023-07-31T11:26:11;6.45;;;2.72;;
35632;SDS011;21754;48.216;-1.628;2023-07-31T11:28:37;5.93;;;2.22;;
35632;SDS011;21754;48.216;-1.628;2023-07-31T11:31:04;3.80;;;2.10;;
35632;SDS011;21754;48.216;-1.628;2023-07-31T11:33:30;4.85;;;2.35;;
35632;SDS011;21754;48.216;-1.628;2023-07-31T11:35:56;7.53;;;3.20;;
35632;SDS011;21754;48.216;-1.628;2023-07-31T11:38:23;4.72;;;2.58;;
35632;SDS011;21754;48.216;-1.628;2023-07-31T11:40:50;6.38;;;3.40;;
35632;SDS011;21754;48.216;-1.628;2023-07-31T11:43:16;6.25;;;2.40;;
35632;SDS011;21754;48.216;-1.628;2023-07-31T11:45:42;5.40;;;1.70;;
35632;SDS011;21754;48.216;-1.628;2023-07-31T11:48:10;6.35;;;2.55;;
35632;SDS011;21754;48.216;-1.628;2023-07-31T11:50:36;12.38;;;3.33;;
35632;SDS011;21754;48.216;-1.628;2023-07-31T11:53:03;8.07;;;3.03;;
35632;SDS011;21754;48.216;-1.628;2023-07-31T11:55:30;4.53;;;2.55;;
35632;SDS011;21754;48.216;-1.628;2023-07-31T11:57:57;8.02;;;2.70;;
35632;SDS011;21754;48.216;-1.628;2023-07-31T12:00:23;6.83;;;2.90;;
35632;SDS011;21754;48.216;-1.628;2023-07-31T12:02:50;5.65;;;2.63;;
35632;SDS011;21754;48.216;-1.628;2023-07-31T12:05:16;2.83;;;2.47;;
35632;SDS011;21754;48.216;-1.628;2023-07-31T12:07:43;8.15;;;2.83;;
35632;SDS011;21754;48.216;-1.628;2023-07-31T12:10:09;10.05;;;1.92;;
35632;SDS011;21754;48.216;-1.628;2023-07-31T12:12:35;8.50;;;2.60;;
35632;SDS011;21754;48.216;-1.628;2023-07-31T12:15:01;4.78;;;2.15;;
35632;SDS011;21754;48.216;-1.628;2023-07-31T12:17:27;5.82;;;2.78;;
35632;SDS011;21754;48.216;-1.628;2023-07-31T12:19:53;3.92;;;2.42;;
35632;SDS011;21754;48.216;-1.628;2023-07-31T12:22:19;2.67;;;2.20;;
35632;SDS011;21754;48.216;-1.628;2023-07-31T12:24:46;4.22;;;2.60;;
35632;SDS011;21754;48.216;-1.628;2023-07-31T12:27:12;5.38;;;2.38;;
35632;SDS011;21754;48.216;-1.628;2023-07-31T12:29:39;8.40;;;2.53;;
35632;SDS011;21754;48.216;-1.628;2023-07-31T12:32:18;4.32;;;2.05;;
35632;SDS011;21754;48.216;-1.628;2023-07-31T12:34:44;4.15;;;2.40;;
35632;SDS011;21754;48.216;-1.628;2023-07-31T12:37:10;4.30;;;3.40;;
35632;SDS011;21754;48.216;-1.628;2023-07-31T12:39:36;3.85;;;2.67;;
35632;SDS011;21754;48.216;-1.628;2023-07-31T12:42:03;7.60;;;2.70;;
35632;SDS011;21754;48.216;-1.628;2023-07-31T12:44:29;5.70;;;2.13;;
35632;SDS011;21754;48.216;-1.628;2023-07-31T12:46:54;3.20;;;1.88;;
35632;SDS011;21754;48.216;-1.628;2023-07-31T12:49:20;2.75;;;1.33;;
35632;SDS011;21754;48.216;-1.628;2023-07-31T12:51:46;2.92;;;1.55;;
35632;SDS011;21754;48.216;-1.628;2023-07-31T12:54:12;2.58;;;1.58;;
35632;SDS011;21754;48.216;-1.628;2023-07-31T12:56:39;1.58;;;1.20;;
35632;SDS011;21754;48.216;-1.628;2023-07-31T12:59:05;5.30;;;1.35;;
35632;SDS011;21754;48.216;-1.628;2023-07-31T13:01:31;1.67;;;1.20;;
35632;SDS011;21754;48.216;-1.628;2023-07-31T13:03:57;4.18;;;1.60;;
35632;SDS011;21754;48.216;-1.628;2023-07-31T13:06:24;1.45;;;1.30;;
35632;SDS011;21754;48.216;-1.628;2023-07-31T13:08:51;2.85;;;1.45;;
35632;SDS011;21754;48.216;-1.628;2023-07-31T13:11:17;1.30;;;1.20;;
35632;SDS011;21754;48.216;-1.628;2023-07-31T13:13:43;4.15;;;1.80;;
35632;SDS011;21754;48.216;-1.628;2023-07-31T13:16:09;4.45;;;1.15;;
35632;SDS011;21754;48.216;-1.628;2023-07-31T13:18:35;1.48;;;1.17;;
35632;SDS011;21754;48.216;-1.628;2023-07-31T13:21:01;2.15;;;1.20;;
35632;SDS011;21754;48.216;-1.628;2023-07-31T13:23:27;1.80;;;1.30;;
35632;SDS011;21754;48.216;-1.628;2023-07-31T13:25:53;1.35;;;1.05;;
35632;SDS011;21754;48.216;-1.628;2023-07-31T13:28:19;1.25;;;1.20;;
35632;SDS011;21754;48.216;-1.628;2023-07-31T13:30:45;1.02;;;0.80;;
35632;SDS011;21754;48.216;-1.628;2023-07-31T13:33:11;2.92;;;1.17;;
35632;SDS011;21754;48.216;-1.628;2023-07-31T13:35:37;2.38;;;1.15;;
35632;SDS011;21754;48.216;-1.628;2023-07-31T13:38:03;3.58;;;1.10;;
35632;SDS011;21754;48.216;-1.628;2023-07-31T13:40:30;6.25;;;1.85;;
35632;SDS011;21754;48.216;-1.628;2023-07-31T13:42:56;1.38;;;0.70;;
35632;SDS011;21754;48.216;-1.628;2023-07-31T13:45:22;2.78;;;0.98;;
35632;SDS011;21754;48.216;-1.628;2023-07-31T13:47:49;1.10;;;1.00;;
35632;SDS011;21754;48.216;-1.628;2023-07-31T13:50:16;1.80;;;0.90;;
35632;SDS011;21754;48.216;-1.628;2023-07-31T13:52:44;1.58;;;1.23;;
35632;SDS011;21754;48.216;-1.628;2023-07-31T13:55:10;3.35;;;1.40;;
35632;SDS011;21754;48.216;-1.628;2023-07-31T13:57:36;6.82;;;1.55;;
35632;SDS011;21754;48.216;-1.628;2023-07-31T14:00:02;1.88;;;1.27;;
35632;SDS011;21754;48.216;-1.628;2023-07-31T14:02:29;4.20;;;1.13;;
35632;SDS011;21754;48.216;-1.628;2023-07-31T14:04:55;3.63;;;1.38;;
35632;SDS011;21754;48.216;-1.628;2023-07-31T14:07:21;5.90;;;1.45;;
35632;SDS011;21754;48.216;-1.628;2023-07-31T14:09:47;2.65;;;1.38;;
35632;SDS011;21754;48.216;-1.628;2023-07-31T14:12:13;1.50;;;0.80;;
35632;SDS011;21754;48.216;-1.628;2023-07-31T14:14:39;0.90;;;0.75;;
35632;SDS011;21754;48.216;-1.628;2023-07-31T14:17:05;1.25;;;1.08;;
35632;SDS011;21754;48.216;-1.628;2023-07-31T14:19:31;1.77;;;1.02;;
35632;SDS011;21754;48.216;-1.628;2023-07-31T14:21:58;2.42;;;0.80;;
35632;SDS011;21754;48.216;-1.628;2023-07-31T14:24:24;1.70;;;0.70;;
35632;SDS011;21754;48.216;-1.628;2023-07-31T14:26:50;0.88;;;0.70;;
35632;SDS011;21754;48.216;-1.628;2023-07-31T14:29:16;2.15;;;0.70;;
35632;SDS011;21754;48.216;-1.628;2023-07-31T14:31:43;3.75;;;0.73;;
35632;SDS011;21754;48.216;-1.628;2023-07-31T14:34:09;1.95;;;1.10;;
35632;SDS011;21754;48.216;-1.628;2023-07-31T14:36:34;1.00;;;0.90;;
35632;SDS011;21754;48.216;-1.628;2023-07-31T14:39:00;1.80;;;0.90;;